Time;durP1;ratioP1;P1;durP2;ratioP2;P2;SDS_P1;SDS_P2;PMS_P1;PMS_P2;Temp;Humidity;BMP_temperature;BMP_pressure;BME280_temperature;BME280_humidity;BME280_pressure;Samples;Min_cycle;Max_cycle;Signal;HPM_P1;HPM_P2
2022/06/22 00:00:21;;;;;;;13.48;9.60;;;13.90;99.90;;;;;;5107227;28;20404;-74
2022/06/22 00:02:53;;;;;;;12.27;9.40;;;13.90;99.90;;;;;;5047934;28;20989;-74
2022/06/22 00:05:30;;;;;;;13.00;9.82;;;13.90;99.90;;;;;;5106241;28;20408;-73
2022/06/22 00:07:59;;;;;;;12.82;9.63;;;13.80;99.90;;;;;;5104548;28;20432;-74
2022/06/22 00:10:44;;;;;;;16.33;10.13;;;13.80;99.90;;;;;;5108833;28;20404;-74
2022/06/22 00:13:23;;;;;;;11.55;10.13;;;13.70;99.90;;;;;;5080322;28;20414;-74
2022/06/22 00:16:04;;;;;;;12.80;9.82;;;13.70;99.90;;;;;;5091483;28;20388;-74
2022/06/22 00:18:41;;;;;;;12.70;9.40;;;13.60;99.90;;;;;;5054271;28;20436;-74
2022/06/22 00:21:19;;;;;;;11.23;9.57;;;13.60;99.90;;;;;;5006322;28;20421;-74
2022/06/22 00:23:48;;;;;;;13.52;9.63;;;13.60;99.90;;;;;;5008476;28;20972;-74
2022/06/22 00:26:32;;;;;;;12.77;9.35;;;13.60;99.90;;;;;;5008374;28;20471;-74
2022/06/22 00:29:09;;;;;;;13.40;9.52;;;13.50;99.90;;;;;;5011920;28;20496;-74
2022/06/22 00:31:57;;;;;;;14.15;9.73;;;13.50;99.90;;;;;;5009011;28;20448;-74
2022/06/22 00:34:30;;;;;;;13.10;9.47;;;13.50;99.90;;;;;;5008310;28;20502;-74
2022/06/22 00:37:28;;;;;;;12.38;9.40;;;13.50;99.90;;;;;;5012783;28;20429;-74
2022/06/22 00:39:58;;;;;;;13.77;9.60;;;13.40;99.90;;;;;;5002929;28;20425;-74
2022/06/22 00:42:40;;;;;;;11.70;8.90;;;13.40;99.90;;;;;;5008509;28;20492;-74
2022/06/22 00:45:25;;;;;;;11.27;8.57;;;13.30;99.90;;;;;;5011586;28;20421;-74
2022/06/22 00:47:58;;;;;;;11.95;8.43;;;13.30;99.90;;;;;;5007309;28;20938;-74
2022/06/22 00:50:43;;;;;;;11.10;8.27;;;13.30;99.90;;;;;;5009497;28;20417;-74
2022/06/22 00:53:32;;;;;;;10.80;8.10;;;13.30;99.90;;;;;;5010592;28;20439;-75
2022/06/22 00:56:16;;;;;;;9.73;8.40;;;13.20;99.90;;;;;;5009977;28;20417;-74
2022/06/22 00:58:57;;;;;;;12.35;8.10;;;13.30;99.90;;;;;;4997342;28;20421;-75
2022/06/22 01:01:39;;;;;;;15.07;10.40;;;13.20;99.90;;;;;;5011314;28;20432;-74
2022/06/22 01:04:25;;;;;;;12.13;10.32;;;13.20;99.90;;;;;;5011098;28;20911;-74
2022/06/22 01:06:51;;;;;;;14.10;10.02;;;13.10;99.90;;;;;;5001416;28;20503;-74
2022/06/22 01:09:27;;;;;;;15.13;11.37;;;13.20;99.90;;;;;;4998816;28;20446;-74
2022/06/22 01:12:17;;;;;;;13.50;10.73;;;13.10;99.90;;;;;;5008899;28;20803;-74
2022/06/22 01:14:48;;;;;;;14.88;10.82;;;13.20;99.90;;;;;;5008912;28;20579;-74
2022/06/22 01:17:28;;;;;;;12.90;10.80;;;13.20;99.90;;;;;;5008893;28;20496;-73
2022/06/22 01:20:13;;;;;;;13.48;10.45;;;13.20;99.90;;;;;;5108081;28;20830;-74
2022/06/22 01:23:09;;;;;;;13.88;10.32;;;13.10;99.90;;;;;;5104878;28;20499;-75
2022/06/22 01:25:47;;;;;;;12.13;9.90;;;13.10;99.90;;;;;;5104291;28;20425;-74
2022/06/22 01:28:14;;;;;;;12.30;9.05;;;13.20;99.90;;;;;;5105406;28;20412;-74
2022/06/22 01:30:43;;;;;;;12.35;10.00;;;13.10;99.90;;;;;;5050202;28;20406;-75
2022/06/22 01:33:25;;;;;;;12.07;9.88;;;13.10;99.90;;;;;;5106865;28;20440;-74
2022/06/22 01:35:55;;;;;;;12.15;9.98;;;13.00;99.90;;;;;;5104042;28;20613;-74
2022/06/22 01:38:24;;;;;;;10.60;9.03;;;13.00;99.90;;;;;;5105043;28;20408;-74
2022/06/22 01:41:02;;;;;;;13.35;9.38;;;13.10;99.90;;;;;;5074962;28;20422;-74
2022/06/22 01:43:44;;;;;;;12.52;9.98;;;13.10;99.90;;;;;;5091400;28;20411;-74
2022/06/22 01:46:18;;;;;;;13.35;10.77;;;13.00;99.90;;;;;;5107501;28;20420;-74
2022/06/22 01:48:54;;;;;;;13.63;10.87;;;13.00;99.90;;;;;;5084629;28;20412;-74
2022/06/22 01:51:37;;;;;;;13.23;9.90;;;12.90;99.90;;;;;;5104003;28;20751;-75
2022/06/22 01:54:17;;;;;;;12.53;10.20;;;12.90;99.90;;;;;;5107415;28;20438;-74
2022/06/22 01:56:51;;;;;;;14.32;11.32;;;12.90;99.90;;;;;;5104051;28;20754;-74
2022/06/22 02:00:08;;;;;;;17.80;10.73;;;12.90;99.90;;;;;;5088234;28;20416;-74
2022/06/22 02:02:52;;;;;;;13.57;11.27;;;12.90;99.90;;;;;;5043106;28;20413;-75
2022/06/22 02:05:40;;;;;;;15.00;11.93;;;12.90;99.90;;;;;;5105505;28;20396;-74
2022/06/22 02:08:19;;;;;;;15.33;11.63;;;13.00;99.90;;;;;;5101741;28;20432;-74
2022/06/22 02:10:52;;;;;;;14.55;11.70;;;13.00;99.90;;;;;;5101157;28;20400;-74
2022/06/22 02:13:31;;;;;;;15.52;12.48;;;12.90;99.90;;;;;;5104706;28;20404;-74
2022/06/22 02:16:14;;;;;;;15.55;12.35;;;12.90;99.90;;;;;;5084381;28;20425;-74
2022/06/22 02:18:48;;;;;;;13.90;11.20;;;12.90;99.90;;;;;;5005546;28;20413;-74
2022/06/22 02:21:35;;;;;;;13.50;10.70;;;12.90;99.90;;;;;;5005413;28;20440;-74
2022/06/22 02:24:12;;;;;;;12.00;9.90;;;12.80;99.90;;;;;;5009278;28;20417;-74
2022/06/22 02:26:59;;;;;;;12.52;10.02;;;12.80;99.90;;;;;;5025593;28;20549;-74
2022/06/22 02:29:51;;;;;;;11.27;9.33;;;12.70;99.90;;;;;;5106703;28;20744;-74
2022/06/22 02:32:23;;;;;;;11.02;8.93;;;12.70;99.90;;;;;;4995881;28;20469;-74
2022/06/22 02:34:54;;;;;;;10.90;8.75;;;12.70;99.90;;;;;;5012052;28;20413;-74
2022/06/22 02:37:23;;;;;;;9.95;8.40;;;12.70;99.90;;;;;;5091191;28;20411;-74
2022/06/22 02:39:53;;;;;;;10.60;9.50;;;12.60;99.90;;;;;;5106539;28;20408;-74
2022/06/22 02:45:07;;;;;;;10.20;8.25;;;12.60;99.90;;;;;;5102281;28;20815;-74
2022/06/22 02:47:56;;;;;;;9.10;7.72;;;12.50;99.90;;;;;;5093570;28;20435;-74
2022/06/22 02:50:57;;;;;;;8.70;7.83;;;12.50;99.90;;;;;;5106385;28;20409;-74
2022/06/22 02:53:28;;;;;;;9.55;8.00;;;12.40;99.90;;;;;;4998870;28;20429;-75
2022/06/22 02:55:54;;;;;;;10.52;8.52;;;12.40;99.90;;;;;;4995867;28;20451;-75
2022/06/22 02:58:36;;;;;;;10.40;9.13;;;12.40;99.90;;;;;;5077279;28;20413;-73
2022/06/22 03:01:12;;;;;;;9.45;8.52;;;12.30;99.90;;;;;;5056839;28;20413;-74
2022/06/22 03:03:39;;;;;;;9.63;8.63;;;12.30;99.90;;;;;;5027342;28;20905;-74
2022/06/22 03:06:09;;;;;;;11.13;9.27;;;12.30;99.90;;;;;;5083700;28;20433;-74
2022/06/22 03:08:35;;;;;;;10.25;8.80;;;12.30;99.90;;;;;;5004797;28;20406;-75
2022/06/22 03:11:03;;;;;;;11.55;9.65;;;12.30;99.90;;;;;;5004149;28;20972;-75
2022/06/22 03:13:41;;;;;;;10.20;8.60;;;12.30;99.90;;;;;;5006428;28;20498;-75
2022/06/22 03:16:18;;;;;;;12.23;9.30;;;12.30;99.90;;;;;;5004984;28;20413;-74
2022/06/22 03:18:44;;;;;;;10.23;9.10;;;12.20;99.90;;;;;;4987133;28;20417;-74
2022/06/22 03:21:13;;;;;;;10.30;9.27;;;12.20;99.90;;;;;;5095186;28;20400;-75
2022/06/22 03:23:59;;;;;;;11.73;9.30;;;12.20;99.90;;;;;;5067385;28;20413;-74
2022/06/22 03:26:36;;;;;;;10.65;9.55;;;12.20;99.90;;;;;;5073290;28;20537;-74
2022/06/22 03:29:21;;;;;;;10.10;9.10;;;12.20;99.90;;;;;;5005690;28;20409;-75
2022/06/22 03:32:24;;;;;;;10.40;9.30;;;12.20;99.90;;;;;;4993576;28;20993;-75
2022/06/22 03:34:59;;;;;;;10.10;8.90;;;12.20;99.90;;;;;;4991723;28;20421;-74
2022/06/22 03:37:34;;;;;;;9.88;8.48;;;12.20;99.90;;;;;;5007849;28;20402;-73
2022/06/22 03:40:13;;;;;;;11.27;9.23;;;12.30;99.90;;;;;;5008897;28;20413;-74
2022/06/22 03:42:51;;;;;;;10.82;9.27;;;12.20;99.90;;;;;;5061296;28;20435;-75
2022/06/22 03:45:39;;;;;;;10.18;9.10;;;12.30;99.90;;;;;;5106018;28;20503;-74
2022/06/22 03:48:09;;;;;;;11.35;10.07;;;12.30;99.90;;;;;;5021710;28;20437;-74
2022/06/22 03:50:40;;;;;;;11.57;9.80;;;12.30;99.90;;;;;;5008636;28;20821;-73
2022/06/22 03:53:17;;;;;;;9.43;8.52;;;12.30;99.90;;;;;;5081059;28;20419;-74
2022/06/22 03:55:48;;;;;;;10.37;9.27;;;12.40;99.90;;;;;;5040846;28;20448;-75
2022/06/22 03:58:14;;;;;;;12.63;9.70;;;12.40;99.90;;;;;;5110267;28;20457;-74
2022/06/22 04:00:43;;;;;;;11.85;10.30;;;12.40;99.90;;;;;;5107791;28;21001;-73
2022/06/22 04:03:10;;;;;;;11.73;10.35;;;12.40;99.90;;;;;;5082215;27;20409;-74
2022/06/22 04:05:52;;;;;;;11.38;10.00;;;12.50;99.90;;;;;;5006184;28;20493;-74
2022/06/22 04:08:32;;;;;;;10.55;9.55;;;12.50;99.90;;;;;;5006650;28;20417;-74
2022/06/22 04:11:12;;;;;;;12.88;9.43;;;12.60;99.90;;;;;;5007729;28;20405;-74
2022/06/22 04:13:47;;;;;;;10.77;9.35;;;12.60;99.90;;;;;;5006993;28;20550;-74
2022/06/22 04:16:24;;;;;;;11.20;9.60;;;12.70;99.90;;;;;;5106697;28;20400;-73
2022/06/22 04:18:56;;;;;;;10.07;9.07;;;12.70;99.90;;;;;;5109244;28;20434;-74
2022/06/22 04:21:33;;;;;;;10.63;9.52;;;12.70;99.90;;;;;;5039002;28;20412;-74
2022/06/22 04:24:04;;;;;;;11.13;9.60;;;12.80;99.90;;;;;;5108974;28;20917;-73
2022/06/22 04:26:29;;;;;;;9.98;8.98;;;12.90;99.90;;;;;;5091164;28;20431;-74
2022/06/22 04:29:18;;;;;;;10.93;9.77;;;13.00;99.90;;;;;;5049816;28;20413;-74
2022/06/22 04:31:54;;;;;;;11.52;9.70;;;13.00;99.90;;;;;;5106383;28;20538;-74
2022/06/22 04:34:35;;;;;;;9.70;8.70;;;13.10;99.90;;;;;;5107209;28;20916;-74
2022/06/22 04:37:06;;;;;;;10.57;8.27;;;13.10;99.90;;;;;;5107616;28;20409;-74
2022/06/22 04:39:57;;;;;;;10.57;8.57;;;13.20;99.90;;;;;;5106913;28;20914;-74
2022/06/22 04:42:23;;;;;;;10.00;8.40;;;13.20;99.90;;;;;;5107616;28;20921;-74
2022/06/22 04:44:50;;;;;;;10.52;8.75;;;13.20;99.90;;;;;;5090145;28;20407;-74
2022/06/22 04:47:24;;;;;;;11.40;9.07;;;13.30;99.90;;;;;;5107605;28;20477;-73
2022/06/22 04:50:06;;;;;;;14.05;11.15;;;13.40;99.90;;;;;;5060431;28;20486;-74
2022/06/22 04:52:48;;;;;;;13.90;11.73;;;13.40;99.90;;;;;;5008549;28;20499;-74
2022/06/22 04:55:20;;;;;;;16.23;12.32;;;13.50;99.90;;;;;;5009497;28;20475;-74
2022/06/22 04:57:49;;;;;;;12.23;10.38;;;13.50;99.90;;;;;;5027487;28;20458;-74
2022/06/22 05:00:36;;;;;;;14.48;12.52;;;13.60;99.90;;;;;;5107406;28;20417;-74
2022/06/22 05:03:07;;;;;;;15.00;12.88;;;13.70;99.90;;;;;;5100682;28;20520;-74
2022/06/22 05:05:34;;;;;;;16.98;13.75;;;13.80;99.90;;;;;;5108399;28;20910;-75
2022/06/22 05:08:09;;;;;;;20.05;14.75;;;13.90;99.90;;;;;;5030925;28;20433;-74
2022/06/22 05:10:49;;;;;;;17.55;15.18;;;14.00;99.90;;;;;;5019801;28;20415;-73
2022/06/22 05:13:23;;;;;;;21.52;17.60;;;14.10;99.90;;;;;;5005255;28;20460;-74
2022/06/22 05:15:53;;;;;;;21.25;16.75;;;14.10;99.90;;;;;;5075435;28;20440;-75
2022/06/22 05:18:24;;;;;;;26.73;18.70;;;14.20;99.90;;;;;;5014598;28;20416;-74
2022/06/22 05:21:18;;;;;;;22.20;17.10;;;14.30;99.90;;;;;;5035262;28;20439;-74
2022/06/22 05:23:50;;;;;;;22.17;17.48;;;14.30;99.90;;;;;;5106641;28;20412;-74
2022/06/22 05:26:18;;;;;;;20.95;16.17;;;14.30;99.90;;;;;;5108958;28;20634;-74
2022/06/22 05:28:54;;;;;;;19.80;16.02;;;14.40;99.90;;;;;;5103033;28;20408;-74
2022/06/22 05:31:28;;;;;;;18.90;14.23;;;14.40;99.90;;;;;;5006774;28;20408;-74
2022/06/22 05:33:59;;;;;;;18.77;13.95;;;14.50;99.90;;;;;;5090564;28;20408;-73
2022/06/22 05:36:29;;;;;;;19.02;13.75;;;14.60;99.90;;;;;;5023110;28;20401;-74
2022/06/22 05:38:57;;;;;;;17.77;13.65;;;14.70;99.90;;;;;;5007119;28;20405;-74
2022/06/22 05:41:29;;;;;;;18.88;14.05;;;14.70;99.90;;;;;;5007796;28;20431;-74
2022/06/22 05:43:58;;;;;;;21.47;15.50;;;14.80;99.90;;;;;;5006273;28;20420;-73
2022/06/22 05:46:25;;;;;;;19.70;14.77;;;14.90;99.90;;;;;;5101940;28;20432;-74
2022/06/22 05:48:51;;;;;;;18.77;14.60;;;14.90;99.90;;;;;;5106872;28;20408;-74
2022/06/22 05:51:32;;;;;;;16.65;13.95;;;15.00;99.90;;;;;;5020629;28;20566;-74
2022/06/22 05:54:04;;;;;;;18.30;14.15;;;15.00;99.90;;;;;;5041454;28;20561;-73
2022/06/22 05:56:39;;;;;;;18.40;14.32;;;15.10;99.90;;;;;;5062982;28;20471;-73
2022/06/22 05:59:27;;;;;;;17.58;13.50;;;15.20;99.90;;;;;;5091173;28;20404;-73
2022/06/22 06:02:04;;;;;;;16.42;12.50;;;15.30;99.90;;;;;;5083524;28;20442;-74
2022/06/22 06:04:35;;;;;;;15.43;12.30;;;15.30;99.90;;;;;;5076791;28;20634;-75
2022/06/22 06:07:27;;;;;;;11.67;8.50;;;15.30;99.90;;;;;;5042134;28;20985;-74
2022/06/22 06:09:53;;;;;;;10.77;8.27;;;15.40;99.90;;;;;;5065371;28;20443;-73
2022/06/22 06:12:25;;;;;;;15.50;10.38;;;15.50;99.90;;;;;;5012481;28;20905;-73
2022/06/22 06:14:52;;;;;;;14.05;10.25;;;15.50;99.90;;;;;;5031778;28;20442;-74
2022/06/22 06:17:32;;;;;;;14.37;11.40;;;15.70;99.90;;;;;;5069926;28;20393;-74
2022/06/22 06:19:59;;;;;;;12.48;10.02;;;15.70;99.90;;;;;;5070500;28;20789;-73
2022/06/22 06:22:28;;;;;;;14.95;9.85;;;15.80;99.90;;;;;;5034050;28;20453;-74
2022/06/22 06:28:10;;;;;;;15.23;11.80;;;15.90;99.90;;;;;;5068524;28;20949;-74
2022/06/22 06:30:49;;;;;;;17.02;10.23;;;15.90;99.90;;;;;;5003630;28;20489;-75
2022/06/22 06:33:24;;;;;;;12.23;10.45;;;16.00;99.90;;;;;;5033242;28;20419;-74
2022/06/22 06:35:57;;;;;;;17.15;10.95;;;16.00;99.90;;;;;;5011336;28;20416;-74
2022/06/22 06:38:34;;;;;;;14.73;11.60;;;16.10;99.90;;;;;;5027952;28;20504;-74
2022/06/22 06:41:12;;;;;;;13.10;11.70;;;16.20;99.90;;;;;;5034611;28;20441;-74
2022/06/22 06:43:59;;;;;;;14.57;10.77;;;16.20;99.90;;;;;;5030206;28;20995;-74
2022/06/22 06:46:37;;;;;;;14.55;10.32;;;16.20;99.90;;;;;;5023035;28;20511;-74
2022/06/22 06:49:25;;;;;;;12.32;9.75;;;16.20;99.90;;;;;;5043844;28;20766;-74
2022/06/22 06:51:57;;;;;;;12.05;7.95;;;16.30;99.90;;;;;;5077456;28;20419;-74
2022/06/22 06:54:41;;;;;;;11.25;7.80;;;16.40;99.90;;;;;;5058566;28;20446;-74
2022/06/22 06:57:08;;;;;;;13.18;8.23;;;16.40;99.90;;;;;;5055951;28;20425;-74
2022/06/22 06:59:34;;;;;;;10.38;7.78;;;16.50;99.90;;;;;;5071684;28;20942;-74
2022/06/22 07:02:10;;;;;;;11.23;7.20;;;16.60;99.90;;;;;;5073423;28;20428;-74
2022/06/22 07:04:36;;;;;;;11.63;8.43;;;16.60;99.90;;;;;;5050589;28;20943;-74
2022/06/22 07:07:12;;;;;;;12.98;8.80;;;16.70;99.90;;;;;;5034540;28;20444;-74
2022/06/22 07:09:39;;;;;;;12.43;9.68;;;16.70;99.90;;;;;;5009631;28;20833;-74
2022/06/22 07:12:24;;;;;;;12.82;9.13;;;16.80;99.90;;;;;;4988450;28;20417;-74
2022/06/22 07:14:49;;;;;;;11.85;8.52;;;16.80;99.90;;;;;;4995865;28;20976;-74
2022/06/22 07:17:18;;;;;;;13.17;9.20;;;16.90;99.90;;;;;;5010924;28;20404;-74
2022/06/22 07:20:36;;;;;;;16.13;9.20;;;16.90;99.90;;;;;;5009266;28;20408;-74
2022/06/22 07:23:23;;;;;;;12.73;8.43;;;17.00;99.90;;;;;;5051247;28;20422;-74
2022/06/22 07:26:08;;;;;;;15.10;6.10;;;17.00;99.90;;;;;;5048884;28;20425;-74
2022/06/22 07:28:42;;;;;;;9.57;5.40;;;17.10;99.90;;;;;;5008643;28;20896;-74
2022/06/22 07:31:30;;;;;;;10.57;5.00;;;17.10;99.90;;;;;;5008974;28;20424;-74
2022/06/22 07:34:12;;;;;;;12.07;6.83;;;17.30;99.90;;;;;;5034016;28;20439;-74
2022/06/22 07:36:48;;;;;;;10.43;6.05;;;17.40;99.90;;;;;;5070452;28;20439;-74
2022/06/22 07:39:29;;;;;;;13.30;6.88;;;17.40;99.90;;;;;;5108429;28;20404;-74
2022/06/22 07:41:54;;;;;;;9.57;5.20;;;17.40;99.90;;;;;;5065684;28;20408;-74
2022/06/22 07:44:24;;;;;;;11.93;5.93;;;17.50;99.90;;;;;;5022560;28;20411;-75
2022/06/22 07:47:08;;;;;;;10.60;5.47;;;17.50;99.90;;;;;;5008253;28;20562;-74
2022/06/22 07:49:40;;;;;;;10.18;6.10;;;17.60;99.90;;;;;;5008824;28;20412;-74
2022/06/22 07:52:10;;;;;;;13.10;6.28;;;17.60;99.90;;;;;;5013689;28;20456;-74
2022/06/22 07:54:36;;;;;;;11.57;5.47;;;17.60;99.90;;;;;;5045427;28;20416;-74
2022/06/22 07:57:34;;;;;;;10.32;5.13;;;17.70;99.90;;;;;;5032946;28;20772;-74
2022/06/22 08:00:06;;;;;;;9.27;5.70;;;17.80;99.90;;;;;;5009282;28;20441;-72
2022/06/22 08:02:51;;;;;;;9.77;5.10;;;18.00;99.90;;;;;;5008461;28;20914;-72
2022/06/22 08:05:21;;;;;;;11.43;4.47;;;18.00;99.90;;;;;;5006297;28;20435;-73
2022/06/22 08:07:54;;;;;;;12.10;4.83;;;18.00;99.90;;;;;;5009106;28;20540;-73
2022/06/22 08:10:33;;;;;;;8.93;4.55;;;17.90;99.90;;;;;;5007636;28;20440;-74
2022/06/22 08:13:13;;;;;;;10.48;5.40;;;18.00;99.90;;;;;;5008366;28;20409;-74
2022/06/22 08:15:44;;;;;;;10.40;5.65;;;18.10;99.90;;;;;;4992344;28;20742;-73
2022/06/22 08:18:10;;;;;;;9.55;5.55;;;18.20;99.90;;;;;;5003920;28;20436;-73
2022/06/22 08:20:40;;;;;;;10.77;5.07;;;18.20;99.90;;;;;;5008067;28;20416;-73
2022/06/22 08:23:07;;;;;;;9.18;4.55;;;18.10;99.90;;;;;;5015996;28;20420;-73
2022/06/22 08:25:34;;;;;;;9.48;5.22;;;18.10;99.90;;;;;;5108936;28;20392;-73
2022/06/22 08:28:02;;;;;;;9.00;4.50;;;18.20;99.90;;;;;;5010372;28;20475;-72
2022/06/22 08:30:29;;;;;;;9.20;4.50;;;18.40;99.90;;;;;;5008391;28;20427;-72
2022/06/22 08:33:04;;;;;;;8.15;3.80;;;18.50;99.90;;;;;;5012790;28;20435;-73
2022/06/22 08:35:36;;;;;;;6.83;4.00;;;18.70;99.90;;;;;;5011174;28;20889;-74
2022/06/22 08:38:11;;;;;;;7.60;4.35;;;18.90;99.90;;;;;;5070358;28;20425;-73
2022/06/22 08:40:54;;;;;;;9.70;4.30;;;19.10;99.90;;;;;;5009210;28;21131;-74
2022/06/22 08:43:38;;;;;;;9.40;3.90;;;19.20;99.90;;;;;;4982206;28;20930;-72
2022/06/22 08:46:03;;;;;;;8.20;3.80;;;19.30;99.90;;;;;;5071789;28;20954;-73
2022/06/22 08:48:50;;;;;;;8.90;3.70;;;19.50;99.90;;;;;;5010235;28;20549;-72
2022/06/22 08:51:32;;;;;;;8.30;3.42;;;19.50;99.90;;;;;;4999630;28;20425;-73
2022/06/22 08:54:15;;;;;;;8.48;3.30;;;19.70;99.90;;;;;;5009701;28;20897;-73
2022/06/22 08:57:16;;;;;;;9.17;3.60;;;19.80;99.90;;;;;;5010104;28;20544;-73
2022/06/22 09:00:01;;;;;;;9.27;3.60;;;19.80;99.90;;;;;;5026076;28;20511;-73
2022/06/22 09:02:40;;;;;;;7.88;3.25;;;19.90;99.90;;;;;;5035257;28;20420;-73
2022/06/22 09:05:27;;;;;;;8.07;3.25;;;19.90;99.90;;;;;;5040094;28;20440;-73
2022/06/22 09:08:21;;;;;;;8.65;3.72;;;20.00;99.90;;;;;;5007297;28;20432;-73
2022/06/22 09:11:03;;;;;;;6.95;3.35;;;20.10;99.90;;;;;;4998855;28;20417;-74
2022/06/22 09:13:44;;;;;;;8.52;3.40;;;20.20;99.90;;;;;;5008501;28;20429;-74
2022/06/22 09:16:28;;;;;;;8.00;3.63;;;20.30;99.90;;;;;;5009846;28;20413;-74
2022/06/22 09:19:05;;;;;;;7.13;3.42;;;20.30;99.90;;;;;;4976940;28;20421;-74
2022/06/22 09:21:37;;;;;;;9.93;3.78;;;20.40;99.90;;;;;;5006469;28;20813;-73
2022/06/22 09:24:07;;;;;;;7.97;3.77;;;20.50;99.90;;;;;;5006523;28;20456;-73
2022/06/22 09:26:53;;;;;;;8.85;3.38;;;20.60;99.90;;;;;;5091843;28;20386;-73
2022/06/22 09:29:38;;;;;;;8.18;3.38;;;20.70;99.90;;;;;;5096912;28;20109;-74
2022/06/22 09:32:26;;;;;;;;;;;20.80;99.90;;;;;;5066464;28;20136;-74
2022/06/22 09:35:11;;;;;;;;;;;20.90;99.90;;;;;;5075068;28;20042;-74
2022/06/22 09:37:49;;;;;;;;;;;21.20;99.90;;;;;;5008894;28;20505;-74
2022/06/22 09:40:24;;;;;;;;;;;21.60;99.50;;;;;;5025110;28;20759;-75
2022/06/22 09:43:03;;;;;;;;;;;21.90;99.50;;;;;;5035499;28;20016;-74
2022/06/22 09:45:28;;;;;;;;;;;22.20;99.10;;;;;;5088486;28;19942;-74
2022/06/22 09:47:57;;;;;;;;;;;22.40;99.10;;;;;;5099425;28;20429;-74
2022/06/22 09:50:41;;;;;;;;;;;22.60;98.40;;;;;;5087666;28;19967;-74
2022/06/22 09:53:06;;;;;;;;;;;22.80;97.80;;;;;;5041273;28;19926;-74
2022/06/22 09:58:34;;;;;;;;;;;22.80;97.40;;;;;;5086122;28;19919;-73
2022/06/22 10:01:00;;;;;;;;;;;22.90;96.90;;;;;;5033286;28;19919;-74
2022/06/22 10:03:44;;;;;;;;;;;23.10;97.20;;;;;;5051374;28;20446;-74
2022/06/22 10:06:13;;;;;;;;;;;23.30;97.40;;;;;;5035752;28;20113;-74
2022/06/22 10:08:44;;;;;;;;;;;23.50;96.70;;;;;;5043176;28;19921;-74
2022/06/22 10:11:16;;;;;;;;;;;23.60;96.40;;;;;;5050491;28;19925;-74
2022/06/22 10:13:41;;;;;;;;;;;23.80;96.00;;;;;;5058821;28;20018;-74
2022/06/22 10:16:07;;;;;;;;;;;24.00;95.80;;;;;;5049194;28;20016;-74
2022/06/22 10:18:44;;;;;;;;;;;24.10;95.10;;;;;;5027323;28;19923;-75
2022/06/22 10:21:28;;;;;;;;;;;24.20;94.20;;;;;;5038083;28;19921;-74
2022/06/22 10:23:54;;;;;;;;;;;24.30;93.80;;;;;;5004139;28;19929;-75
2022/06/22 10:26:29;;;;;;;;;;;24.40;94.10;;;;;;5026816;28;19922;-74
2022/06/22 10:29:00;;;;;;;;;;;24.50;93.60;;;;;;5019624;28;19976;-74
2022/06/22 10:31:38;;;;;;;;;;;24.60;93.20;;;;;;5023536;28;19938;-75
2022/06/22 10:34:22;;;;;;;;;;;24.70;93.70;;;;;;5006835;28;20368;-74
2022/06/22 10:37:04;;;;;;;;;;;24.90;93.50;;;;;;5022976;28;19948;-75
2022/06/22 10:39:46;;;;;;;;;;;25.20;92.90;;;;;;5037049;28;19998;-73
2022/06/22 10:45:11;;;;;;;;;;;25.40;91.90;;;;;;5047976;28;19920;-73
2022/06/22 10:47:49;;;;;;;;;;;25.40;91.50;;;;;;5053478;28;20458;-72
2022/06/22 10:50:34;;;;;;;;;;;25.40;91.70;;;;;;5088915;28;19923;-72
2022/06/22 10:53:08;;;;;;;;;;;25.50;91.80;;;;;;5042735;28;19920;-72
2022/06/22 10:55:34;;;;;;;;;;;25.70;91.60;;;;;;5071592;28;20283;-72
2022/06/22 10:58:05;;;;;;;;;;;25.90;91.40;;;;;;5016990;28;19921;-72
2022/06/22 11:01:01;;;;;;;;;;;26.10;91.50;;;;;;5039287;28;19922;-72
2022/06/22 11:03:45;;;;;;;;;;;26.30;90.60;;;;;;5050357;28;19922;-73
2022/06/22 11:06:29;;;;;;;;;;;26.50;90.20;;;;;;5052595;28;19966;-72
2022/06/22 11:08:54;;;;;;;;;;;26.60;89.40;;;;;;5076612;28;19928;-72
2022/06/22 11:11:20;;;;;;;;;;;26.60;89.30;;;;;;5056215;28;20415;-72
2022/06/22 11:14:04;;;;;;;;;;;26.60;88.80;;;;;;5076736;28;19923;-72
2022/06/22 11:16:44;;;;;;;;;;;26.70;87.20;;;;;;5074201;28;19976;-72
2022/06/22 11:19:20;;;;;;;;;;;26.90;87.40;;;;;;5010241;28;19925;-72
2022/06/22 11:21:57;;;;;;;;;;;27.00;84.10;;;;;;5009890;28;19978;-72
2022/06/22 11:24:35;;;;;;;;;;;27.00;86.30;;;;;;5010102;28;19929;-72
2022/06/22 11:33:07;;;;;;;;;;;27.10;83.50;;;;;;5011601;28;19927;-72
2022/06/22 11:35:38;;;;;;;;;;;26.80;82.80;;;;;;5007015;28;19922;-72
2022/06/22 11:38:24;;;;;;;;;;;26.80;84.20;;;;;;5023903;28;19919;-72
2022/06/22 11:40:55;;;;;;;;;;;27.10;85.40;;;;;;5010084;28;19975;-73
2022/06/22 11:43:24;;;;;;;;;;;27.40;82.10;;;;;;5016082;28;19921;-74
2022/06/22 11:45:55;;;;;;;;;;;27.60;82.20;;;;;;5011718;28;20381;-73
2022/06/22 11:48:39;;;;;;;;;;;27.60;81.40;;;;;;5029039;28;19927;-74
2022/06/22 11:51:27;;;;;;;;;;;27.80;80.20;;;;;;5032406;28;19929;-74
2022/06/22 11:54:11;;;;;;;;;;;28.00;78.50;;;;;;5032818;28;20328;-74
2022/06/22 11:56:47;;;;;;;;;;;28.00;78.40;;;;;;5091001;28;19932;-74
2022/06/22 11:59:13;;;;;;;;;;;28.00;75.80;;;;;;5029657;28;20348;-74
2022/06/22 12:01:45;;;;;;;;;;;28.00;78.20;;;;;;5072232;28;19921;-74
2022/06/22 12:04:11;;;;;;;;;;;28.00;75.20;;;;;;5013878;28;20414;-73
2022/06/22 12:06:54;;;;;;;;;;;28.10;74.40;;;;;;5064252;28;19920;-73
2022/06/22 12:09:39;;;;;;;;;;;28.20;73.60;;;;;;5059778;27;19925;-73
2022/06/22 12:12:05;;;;;;;;;;;28.30;70.90;;;;;;4997709;28;19983;-73
2022/06/22 12:17:47;;;;;;;;;;;28.30;69.90;;;;;;5060171;28;19919;-73
2022/06/22 12:20:27;;;;;;;;;;;28.40;71.50;;;;;;5096172;28;20301;-73
2022/06/22 12:23:04;;;;;;;;;;;28.50;70.60;;;;;;5044195;28;19933;-73
2022/06/22 12:25:49;;;;;;;;;;;28.40;69.10;;;;;;5061990;28;19975;-74
2022/06/22 12:28:14;;;;;;;;;;;28.50;68.60;;;;;;5067564;28;20010;-73
2022/06/22 12:30:53;;;;;;;;;;;28.50;69.10;;;;;;5095081;28;20010;-72
2022/06/22 12:33:22;;;;;;;;;;;28.70;70.40;;;;;;5054972;28;20006;-72
2022/06/22 12:35:56;;;;;;;;;;;28.90;67.90;;;;;;5096953;28;19928;-73
2022/06/22 12:38:31;;;;;;;;;;;29.00;68.80;;;;;;5095993;28;20008;-73
2022/06/22 12:40:57;;;;;;;;;;;29.10;64.50;;;;;;5061000;28;19921;-73
2022/06/22 12:43:41;;;;;;;;;;;29.00;67.40;;;;;;5010861;28;19970;-73
2022/06/22 12:46:10;;;;;;;;;;;29.10;67.60;;;;;;5012212;28;19922;-73
2022/06/22 12:48:44;;;;;;;;;;;29.20;67.30;;;;;;5016329;28;19922;-73
2022/06/22 12:51:30;;;;;;;;;;;29.30;65.20;;;;;;5107951;28;19927;-73
2022/06/22 12:54:07;;;;;;;;;;;29.20;67.60;;;;;;5040846;28;19955;-73
2022/06/22 12:56:39;;;;;;;;;;;29.40;65.90;;;;;;5109944;28;19985;-73
2022/06/22 12:59:05;;;;;;;;;;;29.40;65.60;;;;;;4998609;28;20383;-73
2022/06/22 13:01:31;;;;;;;;;;;29.50;65.90;;;;;;5009626;28;19922;-74
2022/06/22 13:03:59;;;;;;;;;;;29.60;64.20;;;;;;5046903;28;20046;-73
2022/06/22 13:06:27;;;;;;;;;;;29.60;65.30;;;;;;5039310;28;19929;-74
2022/06/22 13:08:53;;;;;;;;;;;29.50;64.00;;;;;;5073380;28;19975;-73
2022/06/22 13:11:20;;;;;;;;;;;29.50;65.50;;;;;;5075646;28;20070;-73
2022/06/22 13:13:56;;;;;;;;;;;29.40;65.60;;;;;;5065200;28;19932;-73
2022/06/22 13:16:25;;;;;;;;;;;29.30;64.20;;;;;;5035225;28;21292;-74
2022/06/22 13:18:55;;;;;;;;;;;29.30;64.80;;;;;;5004589;28;19925;-73
2022/06/22 13:21:26;;;;;;;;;;;29.10;64.50;;;;;;5033460;28;19920;-73
2022/06/22 13:23:57;;;;;;;;;;;29.00;64.50;;;;;;5106101;28;19955;-73
2022/06/22 13:26:28;;;;;;;;;;;28.90;65.10;;;;;;5016336;28;20605;-73
2022/06/22 13:29:08;;;;;;;;;;;28.80;63.70;;;;;;5011812;28;19925;-74
2022/06/22 13:31:37;;;;;;;;;;;28.60;64.10;;;;;;5009896;28;19981;-73
2022/06/22 13:34:08;;;;;;;;;;;28.20;64.10;;;;;;5049209;28;20301;-73
2022/06/22 13:36:42;;;;;;;;;;;28.20;66.00;;;;;;5010501;28;20387;-73
2022/06/22 13:39:13;;;;;;;;;;;28.10;63.90;;;;;;5014553;28;20004;-73
2022/06/22 13:41:57;;;;;;;;;;;28.00;63.90;;;;;;5009481;28;19922;-73
2022/06/22 13:44:28;;;;;;;;;;;28.00;65.60;;;;;;5008167;28;19921;-73
2022/06/22 13:47:11;;;;;;;;;;;27.90;66.00;;;;;;5008228;28;19933;-73
2022/06/22 13:49:37;;;;;;;;;;;28.00;65.50;;;;;;5050858;28;19948;-73
2022/06/22 13:52:12;;;;;;;;;;;28.00;65.50;;;;;;5007944;28;19921;-73
2022/06/22 13:54:38;;;;;;;;;;;28.00;65.40;;;;;;5006493;28;20013;-73
2022/06/22 13:57:03;;;;;;;;;;;28.10;65.90;;;;;;5008945;28;20371;-73
2022/06/22 13:59:33;;;;;;;;;;;28.20;65.40;;;;;;5007679;28;19966;-73
2022/06/22 14:02:02;;;;;;;;;;;28.30;64.80;;;;;;5042831;28;20301;-73
2022/06/22 14:04:31;;;;;;;;;;;28.40;64.90;;;;;;5109315;28;19920;-73
2022/06/22 14:07:11;;;;;;;;;;;28.40;64.40;;;;;;5074190;28;19920;-73
2022/06/22 14:09:37;;;;;;;;;;;28.30;64.60;;;;;;5104824;28;19963;-73
2022/06/22 14:12:13;;;;;;;;;;;28.30;64.70;;;;;;5012982;28;19968;-73